createdAt,value
2022-10-25T00:02:06.421Z,1.73
2022-10-25T00:04:53.928Z,2.13
2022-10-25T00:07:41.491Z,2.30
2022-10-25T00:10:29.710Z,2.30
2022-10-25T00:13:17.100Z,1.80
2022-10-25T00:16:05.189Z,1.80
2022-10-25T00:18:53.801Z,1.60
2022-10-25T00:21:41.882Z,2.10
2022-10-25T00:24:29.376Z,2.60
2022-10-25T00:27:16.911Z,1.87
2022-10-25T00:30:06.895Z,2.33
2022-10-25T00:32:54.659Z,1.77
2022-10-25T00:35:42.062Z,2.07
2022-10-25T00:38:30.740Z,2.27
2022-10-25T00:41:22.615Z,2.10
2022-10-25T00:44:40.932Z,2.20
2022-10-25T00:47:47.722Z,2.47
2022-10-25T00:50:55.440Z,2.30
2022-10-25T00:53:43.640Z,2.63
2022-10-25T00:56:38.205Z,2.03
2022-10-25T00:59:29.040Z,2.70
2022-10-25T01:02:20.276Z,2.47
2022-10-25T01:05:10.532Z,3.33
2022-10-25T01:07:58.500Z,2.20
2022-10-25T01:10:47.576Z,2.10
2022-10-25T01:13:36.592Z,3.10
2022-10-25T01:16:32.235Z,2.70
2022-10-25T01:20:01.013Z,2.60
2022-10-25T01:23:31.485Z,1.83
2022-10-25T01:26:26.906Z,1.83
2022-10-25T01:29:45.122Z,2.17
2022-10-25T01:32:52.390Z,1.97
2022-10-25T01:36:02.608Z,2.03
2022-10-25T01:39:21.030Z,2.30
2022-10-25T01:42:22.347Z,1.80
2022-10-25T01:45:42.881Z,2.13
2022-10-25T01:48:49.443Z,1.90
2022-10-25T01:51:38.770Z,2.57
2022-10-25T01:54:27.271Z,2.03
2022-10-25T01:58:02.506Z,2.23
2022-10-25T02:01:28.091Z,1.67
2022-10-25T02:04:28.884Z,2.43
2022-10-25T02:07:28.295Z,2.03
2022-10-25T02:10:57.522Z,2.00
2022-10-25T02:14:00.125Z,2.63
2022-10-25T02:17:10.524Z,1.87
2022-10-25T02:20:01.485Z,2.77
2022-10-25T02:22:51.120Z,2.20
2022-10-25T02:25:42.340Z,1.77
2022-10-25T02:28:32.635Z,1.97
2022-10-25T02:31:23.700Z,2.00
2022-10-25T02:34:11.567Z,2.00
2022-10-25T02:36:59.670Z,2.20
2022-10-25T02:39:48.316Z,2.63
2022-10-25T02:42:35.741Z,2.40
2022-10-25T02:45:23.421Z,2.10
2022-10-25T02:48:10.900Z,2.30
2022-10-25T02:50:58.330Z,2.43
2022-10-25T02:53:46.014Z,1.63
2022-10-25T02:56:33.420Z,1.77
2022-10-25T02:59:22.165Z,2.17
2022-10-25T03:02:09.684Z,2.00
2022-10-25T03:04:57.169Z,1.77
2022-10-25T03:07:44.636Z,1.47
2022-10-25T03:10:32.090Z,1.87
2022-10-25T03:13:20.065Z,1.83
2022-10-25T03:16:08.575Z,2.40
2022-10-25T03:18:59.838Z,1.97
2022-10-25T03:21:47.255Z,1.93
2022-10-25T03:24:34.676Z,1.70
2022-10-25T03:27:22.141Z,1.83
2022-10-25T03:30:09.995Z,1.97
2022-10-25T03:32:59.795Z,2.40
2022-10-25T03:35:51.919Z,2.50
2022-10-25T03:38:39.741Z,2.07
2022-10-25T03:41:27.212Z,2.37
2022-10-25T03:44:15.001Z,1.60
2022-10-25T03:47:02.395Z,1.87
2022-10-25T03:49:49.840Z,1.73
2022-10-25T03:52:37.722Z,1.93
2022-10-25T03:55:25.289Z,1.80
2022-10-25T03:58:12.781Z,1.87
2022-10-25T04:01:00.296Z,2.50
2022-10-25T04:03:47.750Z,2.00
2022-10-25T04:06:35.171Z,1.70
2022-10-25T04:09:22.612Z,1.97
2022-10-25T04:12:10.080Z,2.03
2022-10-25T04:14:57.510Z,2.07
2022-10-25T04:17:45.179Z,2.10
2022-10-25T04:20:32.819Z,2.87
2022-10-25T04:23:20.250Z,2.13
2022-10-25T04:26:07.760Z,2.13
2022-10-25T04:28:56.727Z,2.07
2022-10-25T04:31:44.157Z,2.30
2022-10-25T04:34:31.620Z,2.53
2022-10-25T04:37:19.049Z,1.50
2022-10-25T04:40:07.463Z,3.80
2022-10-25T04:42:54.895Z,2.13
2022-10-25T04:45:42.370Z,2.60
2022-10-25T04:48:30.203Z,2.87
2022-10-25T04:51:17.760Z,2.07
2022-10-25T04:54:05.265Z,2.27
2022-10-25T04:56:52.741Z,2.60
2022-10-25T04:59:40.181Z,2.63
2022-10-25T05:02:27.672Z,3.20
2022-10-25T05:05:15.276Z,1.80
2022-10-25T05:08:02.682Z,2.83
2022-10-25T05:10:56.370Z,3.60
2022-10-25T05:13:48.027Z,2.70
2022-10-25T05:16:35.520Z,2.07
2022-10-25T05:19:22.985Z,2.10
2022-10-25T05:22:10.780Z,1.90
2022-10-25T05:24:58.236Z,2.23
2022-10-25T05:27:45.690Z,1.70
2022-10-25T05:30:33.086Z,2.40
2022-10-25T05:33:20.533Z,2.43
2022-10-25T05:36:08.211Z,1.40
2022-10-25T05:38:56.710Z,2.43
2022-10-25T05:41:44.190Z,2.27
2022-10-25T05:44:31.711Z,2.20
2022-10-25T05:47:19.125Z,2.57
2022-10-25T05:50:06.951Z,2.57
2022-10-25T05:52:54.410Z,2.33
2022-10-25T05:55:41.885Z,2.20
2022-10-25T05:58:29.312Z,2.43
2022-10-25T06:01:20.859Z,3.03
2022-10-25T06:04:10.063Z,2.77
2022-10-25T06:06:58.136Z,2.47
2022-10-25T06:09:45.541Z,2.27
2022-10-25T06:12:33.004Z,3.20
2022-10-25T06:15:20.420Z,3.03
2022-10-25T06:18:07.949Z,2.70
2022-10-25T06:20:55.353Z,2.23
2022-10-25T06:23:44.397Z,3.00
2022-10-25T06:26:32.769Z,3.33
2022-10-25T06:29:20.271Z,2.73
2022-10-25T06:32:07.783Z,3.27
2022-10-25T06:34:55.180Z,2.90
2022-10-25T06:37:42.565Z,3.07
2022-10-25T06:40:30.014Z,3.73
2022-10-25T06:43:17.470Z,2.17
2022-10-25T06:46:34.292Z,3.00
2022-10-25T06:49:21.730Z,2.60
2022-10-25T06:52:09.291Z,2.60
2022-10-25T06:54:56.672Z,2.50
2022-10-25T06:57:44.156Z,2.87
2022-10-25T07:00:31.653Z,2.87
2022-10-25T07:03:19.136Z,2.43
2022-10-25T07:06:11.320Z,2.83
2022-10-25T07:09:00.405Z,2.33
2022-10-25T07:11:48.157Z,2.50
2022-10-25T07:14:35.590Z,2.40
2022-10-25T07:17:23.026Z,4.13
2022-10-25T07:20:11.258Z,2.83
2022-10-25T07:23:00.283Z,2.67
2022-10-25T07:25:48.631Z,2.90
2022-10-25T07:28:36.051Z,2.60
2022-10-25T07:31:33.680Z,2.80
2022-10-25T07:34:21.181Z,1.80
2022-10-25T07:37:08.745Z,2.10
2022-10-25T07:39:56.771Z,2.10
2022-10-25T07:42:44.256Z,3.40
2022-10-25T07:45:31.787Z,2.90
2022-10-25T07:48:19.708Z,2.67
2022-10-25T07:51:11.597Z,5.00
2022-10-25T07:53:59.008Z,3.17
2022-10-25T07:56:46.471Z,2.77
2022-10-25T07:59:33.958Z,2.63
2022-10-25T08:02:24.198Z,2.70
2022-10-25T08:05:13.700Z,2.73
2022-10-25T08:08:01.124Z,3.03
2022-10-25T08:10:49.026Z,2.97
2022-10-25T08:13:40.356Z,2.23
2022-10-25T08:16:27.817Z,2.87
2022-10-25T08:19:15.363Z,3.57
2022-10-25T08:22:03.455Z,2.60
2022-10-25T08:24:50.871Z,2.93
2022-10-25T08:27:40.906Z,4.30
2022-10-25T08:30:28.401Z,2.80
2022-10-25T08:33:15.820Z,4.00
2022-10-25T08:36:03.831Z,3.03
2022-10-25T08:38:51.265Z,3.20
2022-10-25T08:41:57.550Z,2.90
2022-10-25T08:45:11.301Z,2.73
2022-10-25T08:48:02.635Z,2.37
2022-10-25T08:51:03.400Z,1.90
2022-10-25T08:53:57.179Z,1.60
2022-10-25T08:56:56.997Z,1.80
2022-10-25T09:00:01.771Z,1.90
2022-10-25T09:02:57.645Z,1.93
2022-10-25T09:06:35.230Z,1.67
2022-10-25T09:10:00.331Z,2.00
2022-10-25T09:13:01.872Z,1.90
2022-10-25T09:16:01.943Z,1.95
2022-10-25T09:18:57.371Z,1.80
2022-10-25T09:22:01.485Z,1.75
2022-10-25T09:25:18.878Z,1.70
2022-10-25T09:28:21.355Z,1.45
2022-10-25T09:31:16.505Z,1.30
2022-10-25T09:34:09.497Z,1.60
2022-10-25T09:37:30.435Z,1.20
2022-10-25T09:40:45.203Z,2.00
2022-10-25T09:44:17.647Z,1.70
2022-10-25T09:47:31.460Z,1.35
2022-10-25T09:50:35.594Z,1.65
2022-10-25T09:53:24.271Z,1.20
2022-10-25T09:56:12.500Z,1.08
2022-10-25T09:59:04.441Z,1.52
2022-10-25T10:01:52.061Z,0.93
2022-10-25T10:04:39.991Z,1.02
2022-10-25T10:07:37.637Z,1.13
2022-10-25T10:10:34.375Z,1.02
2022-10-25T10:13:52.661Z,0.98
2022-10-25T10:16:48.941Z,1.20
2022-10-25T10:19:36.420Z,1.02
2022-10-25T10:22:23.916Z,0.85
2022-10-25T10:25:20.141Z,0.95
2022-10-25T10:28:15.226Z,0.95
2022-10-25T10:31:07.441Z,1.17
2022-10-25T10:33:55.115Z,0.90
2022-10-25T10:36:45.909Z,0.90
2022-10-25T10:39:34.611Z,1.00
2022-10-25T10:42:34.924Z,1.05
2022-10-25T10:45:22.625Z,0.80
2022-10-25T10:48:22.371Z,1.13
2022-10-25T10:51:43.057Z,1.20
2022-10-25T10:54:31.533Z,0.82
2022-10-25T10:57:32.939Z,1.25
2022-10-25T11:00:30.160Z,1.23
2022-10-25T11:03:45.000Z,1.30
2022-10-25T11:06:41.321Z,1.42
2022-10-25T11:09:28.815Z,1.40
2022-10-25T11:12:16.333Z,1.40
2022-10-25T11:15:16.334Z,1.70
2022-10-25T11:18:07.532Z,1.58
2022-10-25T11:21:22.835Z,1.52
2022-10-25T11:24:25.003Z,2.00
2022-10-25T11:27:56.986Z,1.75
2022-10-25T11:31:35.165Z,1.77
2022-10-25T11:34:48.578Z,1.77
2022-10-25T11:38:05.639Z,1.58
2022-10-25T11:41:32.180Z,1.60
2022-10-25T11:44:46.417Z,1.60
2022-10-25T11:47:59.375Z,1.67
2022-10-25T11:51:16.490Z,1.65
2022-10-25T11:54:45.337Z,1.60
2022-10-25T11:57:50.200Z,1.85
2022-10-25T12:01:10.923Z,1.85
2022-10-25T12:04:57.233Z,2.05
2022-10-25T12:08:26.140Z,1.75
2022-10-25T12:11:47.432Z,1.23
2022-10-25T12:14:43.890Z,2.00
2022-10-25T12:17:34.823Z,1.50
2022-10-25T12:20:29.998Z,1.55
2022-10-25T12:23:23.246Z,1.65
2022-10-25T12:26:37.050Z,1.70
2022-10-25T12:29:38.546Z,1.13
2022-10-25T12:32:44.157Z,1.55
2022-10-25T12:35:43.260Z,1.80
2022-10-25T12:38:40.587Z,1.60
2022-10-25T12:41:37.280Z,1.55
2022-10-25T12:44:58.930Z,1.75
2022-10-25T12:48:09.066Z,1.75
2022-10-25T12:51:37.026Z,1.70
2022-10-25T12:55:10.060Z,1.70
2022-10-25T12:58:38.719Z,1.33
2022-10-25T13:01:49.855Z,1.50
2022-10-25T13:05:27.275Z,1.65
2022-10-25T13:08:22.000Z,1.42
2022-10-25T13:11:10.986Z,2.13
2022-10-25T13:13:58.479Z,1.92
2022-10-25T13:16:45.926Z,1.67
2022-10-25T13:19:53.506Z,1.80
2022-10-25T13:22:42.865Z,1.50
2022-10-25T13:25:33.320Z,1.75
2022-10-25T13:28:35.294Z,1.85
2022-10-25T13:31:35.578Z,1.88
2022-10-25T13:34:31.749Z,2.30
2022-10-25T13:37:34.387Z,2.13
2022-10-25T13:40:30.050Z,2.83
2022-10-25T13:43:22.041Z,2.63
2022-10-25T13:46:12.723Z,2.75
2022-10-25T13:49:05.333Z,2.05
2022-10-25T13:51:57.995Z,2.70
2022-10-25T13:54:54.375Z,2.78
2022-10-25T13:58:01.445Z,2.70
2022-10-25T14:00:52.991Z,2.33
2022-10-25T14:04:06.059Z,2.25
2022-10-25T14:06:54.565Z,2.30
2022-10-25T14:09:44.085Z,2.95
2022-10-25T14:12:33.559Z,2.85
2022-10-25T14:15:49.325Z,3.35
2022-10-25T14:18:40.465Z,2.80
2022-10-25T14:21:28.325Z,3.13
2022-10-25T14:24:17.660Z,2.38
2022-10-25T14:27:05.135Z,2.40
2022-10-25T14:29:52.525Z,2.80
2022-10-25T14:32:49.801Z,2.30
2022-10-25T14:35:48.343Z,2.00
2022-10-25T14:38:54.138Z,2.00
2022-10-25T14:41:49.420Z,1.98
2022-10-25T14:44:50.856Z,2.50
2022-10-25T14:47:38.424Z,2.15
2022-10-25T14:50:26.779Z,1.73
2022-10-25T14:53:19.470Z,2.22
2022-10-25T14:56:07.786Z,1.50
2022-10-25T14:58:57.151Z,1.85
2022-10-25T15:01:59.722Z,1.50
2022-10-25T15:04:51.120Z,1.63
2022-10-25T15:07:47.176Z,1.50
2022-10-25T15:10:43.921Z,1.90
2022-10-25T15:13:53.500Z,1.27
2022-10-25T15:16:41.600Z,1.20
2022-10-25T15:19:29.205Z,1.58
2022-10-25T15:22:16.630Z,0.98
2022-10-25T15:25:22.900Z,1.00
2022-10-25T15:28:17.732Z,1.30
2022-10-25T15:31:07.502Z,0.85
2022-10-25T15:34:04.399Z,0.90
2022-10-25T15:36:51.916Z,0.80
2022-10-25T15:39:40.527Z,1.15
2022-10-25T15:42:28.135Z,1.80
2022-10-25T15:45:15.893Z,1.08
2022-10-25T15:48:15.859Z,0.82
2022-10-25T15:51:04.843Z,1.20
2022-10-25T15:53:52.331Z,1.08
2022-10-25T15:56:39.838Z,1.08
2022-10-25T15:59:27.313Z,1.50
2022-10-25T16:02:23.961Z,1.45
2022-10-25T16:05:25.254Z,1.15
2022-10-25T16:08:14.739Z,1.17
2022-10-25T16:11:02.271Z,0.90
2022-10-25T16:13:53.456Z,0.80
2022-10-25T16:16:41.387Z,1.20
2022-10-25T16:19:31.707Z,1.30
2022-10-25T16:22:19.324Z,1.20
2022-10-25T16:25:07.336Z,1.77
2022-10-25T16:27:55.100Z,1.07
2022-10-25T16:30:43.881Z,1.40
2022-10-25T16:33:31.419Z,1.47
2022-10-25T16:36:20.739Z,1.47
2022-10-25T16:39:10.155Z,1.30
2022-10-25T16:41:58.732Z,1.90
2022-10-25T16:44:46.161Z,1.30
2022-10-25T16:47:33.655Z,1.60
2022-10-25T16:50:24.143Z,1.23
2022-10-25T16:53:13.281Z,1.10
2022-10-25T16:56:01.185Z,1.40
2022-10-25T16:58:48.655Z,1.70
2022-10-25T17:01:39.958Z,1.60
2022-10-25T17:04:28.796Z,1.37
2022-10-25T17:07:16.386Z,2.33
2022-10-25T17:10:04.087Z,2.03
2022-10-25T17:13:03.530Z,1.87
2022-10-25T17:15:51.990Z,1.87
2022-10-25T17:18:39.490Z,1.40
2022-10-25T17:21:28.389Z,1.77
2022-10-25T17:24:16.705Z,1.37
2022-10-25T17:27:06.800Z,2.53
2022-10-25T17:29:54.410Z,1.80
2022-10-25T17:32:42.470Z,2.03
2022-10-25T17:35:30.947Z,1.80
2022-10-25T17:38:18.453Z,1.50
2022-10-25T17:41:06.976Z,1.80
2022-10-25T17:43:56.763Z,2.27
2022-10-25T17:46:44.708Z,2.53
2022-10-25T17:49:32.156Z,2.27
2022-10-25T17:52:19.617Z,2.30
2022-10-25T17:55:10.819Z,2.10
2022-10-25T17:57:58.262Z,2.10
2022-10-25T18:00:45.670Z,1.80
2022-10-25T18:03:33.290Z,2.10
2022-10-25T18:09:16.351Z,3.30
2022-10-25T18:12:05.140Z,2.30
2022-10-25T18:14:55.747Z,2.47
2022-10-25T18:17:46.749Z,2.50
2022-10-25T18:20:34.725Z,3.10
2022-10-25T18:23:22.203Z,2.20
2022-10-25T18:26:12.381Z,2.60
2022-10-25T18:29:00.126Z,2.10
2022-10-25T18:31:47.559Z,2.40
2022-10-25T18:34:35.146Z,2.73
2022-10-25T18:37:22.595Z,2.90
2022-10-25T18:40:11.679Z,2.67
2022-10-25T18:42:59.196Z,2.80
2022-10-25T18:45:46.701Z,3.03
2022-10-25T18:48:34.232Z,2.87
2022-10-25T18:51:26.630Z,2.33
2022-10-25T18:54:14.086Z,3.13
2022-10-25T18:57:01.564Z,4.53
2022-10-25T18:59:48.970Z,3.20
2022-10-25T19:02:37.911Z,2.87
2022-10-25T19:05:30.305Z,2.93
2022-10-25T19:08:18.400Z,3.23
2022-10-25T19:11:09.204Z,2.93
2022-10-25T19:13:57.331Z,3.03
2022-10-25T19:16:45.106Z,2.13
2022-10-25T19:19:32.559Z,2.43
2022-10-25T19:22:20.055Z,2.60
2022-10-25T19:25:07.787Z,2.40
2022-10-25T19:27:56.165Z,2.60
2022-10-25T19:30:43.603Z,2.50
2022-10-25T19:33:31.055Z,3.43
2022-10-25T19:36:20.006Z,2.13
2022-10-25T19:39:07.441Z,2.60
2022-10-25T19:41:54.896Z,2.47
2022-10-25T19:44:42.455Z,2.20
2022-10-25T19:47:29.945Z,2.77
2022-10-25T19:50:17.508Z,1.93
2022-10-25T19:53:05.006Z,2.20
2022-10-25T19:56:06.335Z,2.60
2022-10-25T19:58:53.961Z,2.50
2022-10-25T20:01:43.654Z,2.03
2022-10-25T20:04:31.222Z,2.20
2022-10-25T20:07:18.750Z,1.97
2022-10-25T20:10:07.296Z,2.43
2022-10-25T20:12:54.770Z,2.50
2022-10-25T20:15:55.580Z,1.93
2022-10-25T20:18:43.302Z,2.10
2022-10-25T20:21:37.170Z,2.43
2022-10-25T20:24:25.230Z,2.03
2022-10-25T20:27:12.701Z,2.17
2022-10-25T20:30:00.218Z,1.80
2022-10-25T20:32:47.690Z,2.63
2022-10-25T20:35:41.006Z,2.20
2022-10-25T20:38:29.247Z,2.07
2022-10-25T20:41:29.427Z,2.10
2022-10-25T20:44:16.895Z,1.87
2022-10-25T20:47:04.556Z,1.70
2022-10-25T20:49:51.982Z,2.60
2022-10-25T20:52:47.643Z,2.03
2022-10-25T20:55:35.769Z,1.77
2022-10-25T20:58:24.779Z,1.77
2022-10-25T21:01:12.815Z,2.40
2022-10-25T21:04:00.498Z,1.57
2022-10-25T21:06:49.310Z,1.93
2022-10-25T21:09:36.707Z,2.27
2022-10-25T21:12:24.881Z,1.67
2022-10-25T21:15:12.526Z,1.60
2022-10-25T21:18:00.155Z,1.93
2022-10-25T21:20:49.100Z,2.10
2022-10-25T21:23:36.841Z,2.30
2022-10-25T21:26:24.504Z,1.90
2022-10-25T21:29:12.000Z,1.53
2022-10-25T21:31:59.426Z,2.47
2022-10-25T21:34:47.012Z,2.20
2022-10-25T21:37:34.450Z,2.00
2022-10-25T21:40:21.900Z,2.33
2022-10-25T21:43:09.439Z,2.23
2022-10-25T21:45:59.070Z,2.77
2022-10-25T21:48:48.230Z,1.90
2022-10-25T21:51:35.870Z,2.00
2022-10-25T21:54:24.913Z,2.00
2022-10-25T21:57:12.400Z,2.37
2022-10-25T21:59:59.837Z,2.10
2022-10-25T22:02:47.308Z,2.10
2022-10-25T22:05:34.856Z,1.67
2022-10-25T22:08:22.316Z,2.37
2022-10-25T22:11:19.101Z,2.40
2022-10-25T22:14:12.335Z,2.60
2022-10-25T22:16:59.760Z,2.67
2022-10-25T22:19:47.193Z,2.50
2022-10-25T22:22:34.800Z,1.97
2022-10-25T22:25:22.250Z,2.33
2022-10-25T22:28:09.689Z,1.93
2022-10-25T22:31:06.291Z,1.90
2022-10-25T22:34:00.905Z,2.23
2022-10-25T22:36:48.360Z,2.20
2022-10-25T22:39:35.879Z,1.80
2022-10-25T22:42:25.376Z,2.87
2022-10-25T22:45:12.956Z,1.80
2022-10-25T22:48:00.375Z,2.60
2022-10-25T22:50:54.121Z,2.00
2022-10-25T22:53:42.202Z,1.80
2022-10-25T22:56:32.372Z,2.23
2022-10-25T22:59:19.861Z,1.70
2022-10-25T23:02:07.296Z,2.07
2022-10-25T23:04:54.708Z,1.77
2022-10-25T23:07:42.184Z,1.80
2022-10-25T23:10:29.606Z,1.40
2022-10-25T23:13:17.081Z,2.40
2022-10-25T23:16:05.236Z,2.23
2022-10-25T23:18:53.721Z,2.00
2022-10-25T23:21:41.131Z,1.90
2022-10-25T23:24:28.512Z,2.07
2022-10-25T23:27:15.945Z,1.83
2022-10-25T23:30:03.677Z,1.83
2022-10-25T23:32:52.150Z,2.97
2022-10-25T23:35:41.741Z,1.63
2022-10-25T23:38:29.680Z,1.70
2022-10-25T23:41:19.339Z,1.93
2022-10-25T23:44:06.760Z,2.33
2022-10-25T23:46:54.187Z,1.90
2022-10-25T23:49:41.659Z,2.00
2022-10-25T23:52:29.346Z,1.83
2022-10-25T23:55:17.075Z,1.60
2022-10-25T23:58:04.611Z,1.87
